sensor_id;sensor_type;location;lat;lon;timestamp;P1;durP1;ratioP1;P2;durP2;ratioP2
17967;SDS011;9109;48.050;11.696;2023-11-21T00:02:24;6.97;;;1.53;;
17967;SDS011;9109;48.050;11.696;2023-11-21T00:05:28;9.33;;;1.80;;
17967;SDS011;9109;48.050;11.696;2023-11-21T00:08:30;3.67;;;1.30;;
17967;SDS011;9109;48.050;11.696;2023-11-21T00:11:34;9.10;;;1.90;;
17967;SDS011;9109;48.050;11.696;2023-11-21T00:14:38;11.67;;;1.97;;
17967;SDS011;9109;48.050;11.696;2023-11-21T00:17:42;2.60;;;1.10;;
17967;SDS011;9109;48.050;11.696;2023-11-21T00:20:47;9.50;;;1.40;;
17967;SDS011;9109;48.050;11.696;2023-11-21T00:23:49;5.83;;;1.43;;
17967;SDS011;9109;48.050;11.696;2023-11-21T00:26:51;7.33;;;1.60;;
17967;SDS011;9109;48.050;11.696;2023-11-21T00:29:54;5.83;;;1.40;;
17967;SDS011;9109;48.050;11.696;2023-11-21T00:33:00;5.33;;;1.40;;
17967;SDS011;9109;48.050;11.696;2023-11-21T00:36:03;3.83;;;1.20;;
17967;SDS011;9109;48.050;11.696;2023-11-21T00:39:09;8.77;;;1.53;;
17967;SDS011;9109;48.050;11.696;2023-11-21T00:42:12;5.00;;;1.67;;
17967;SDS011;9109;48.050;11.696;2023-11-21T00:45:19;3.60;;;1.07;;
17967;SDS011;9109;48.050;11.696;2023-11-21T00:48:26;7.27;;;1.33;;
17967;SDS011;9109;48.050;11.696;2023-11-21T00:51:31;11.47;;;1.87;;
17967;SDS011;9109;48.050;11.696;2023-11-21T00:54:34;5.17;;;1.13;;
17967;SDS011;9109;48.050;11.696;2023-11-21T00:57:37;5.50;;;1.20;;
17967;SDS011;9109;48.050;11.696;2023-11-21T01:00:40;9.80;;;1.60;;
17967;SDS011;9109;48.050;11.696;2023-11-21T01:03:46;7.73;;;1.40;;
17967;SDS011;9109;48.050;11.696;2023-11-21T01:06:48;20.23;;;1.40;;
17967;SDS011;9109;48.050;11.696;2023-11-21T01:09:51;4.33;;;1.10;;
17967;SDS011;9109;48.050;11.696;2023-11-21T01:12:53;8.80;;;1.17;;
17967;SDS011;9109;48.050;11.696;2023-11-21T01:15:59;5.17;;;1.40;;
17967;SDS011;9109;48.050;11.696;2023-11-21T01:19:03;3.57;;;1.30;;
17967;SDS011;9109;48.050;11.696;2023-11-21T01:22:09;2.87;;;1.00;;
17967;SDS011;9109;48.050;11.696;2023-11-21T01:25:13;3.73;;;1.10;;
17967;SDS011;9109;48.050;11.696;2023-11-21T01:28:21;3.80;;;1.40;;
17967;SDS011;9109;48.050;11.696;2023-11-21T01:31:32;7.27;;;1.87;;
17967;SDS011;9109;48.050;11.696;2023-11-21T01:34:36;16.60;;;2.00;;
17967;SDS011;9109;48.050;11.696;2023-11-21T01:37:40;3.20;;;1.20;;
17967;SDS011;9109;48.050;11.696;2023-11-21T01:40:42;5.63;;;1.30;;
17967;SDS011;9109;48.050;11.696;2023-11-21T01:43:45;4.83;;;1.20;;
17967;SDS011;9109;48.050;11.696;2023-11-21T01:46:53;4.63;;;1.40;;
17967;SDS011;9109;48.050;11.696;2023-11-21T01:50:01;8.23;;;1.20;;
17967;SDS011;9109;48.050;11.696;2023-11-21T01:53:06;9.00;;;2.00;;
17967;SDS011;9109;48.050;11.696;2023-11-21T01:56:13;5.60;;;1.40;;
17967;SDS011;9109;48.050;11.696;2023-11-21T01:59:18;2.77;;;1.00;;
17967;SDS011;9109;48.050;11.696;2023-11-21T02:02:26;5.93;;;1.83;;
17967;SDS011;9109;48.050;11.696;2023-11-21T02:05:32;4.37;;;1.37;;
17967;SDS011;9109;48.050;11.696;2023-11-21T02:08:35;4.33;;;1.37;;
17967;SDS011;9109;48.050;11.696;2023-11-21T02:11:39;4.07;;;1.30;;
17967;SDS011;9109;48.050;11.696;2023-11-21T02:14:42;5.47;;;1.23;;
17967;SDS011;9109;48.050;11.696;2023-11-21T02:17:45;8.90;;;1.57;;
17967;SDS011;9109;48.050;11.696;2023-11-21T02:20:52;10.53;;;1.57;;
17967;SDS011;9109;48.050;11.696;2023-11-21T02:23:58;6.00;;;1.30;;
17967;SDS011;9109;48.050;11.696;2023-11-21T02:27:00;4.93;;;1.23;;
17967;SDS011;9109;48.050;11.696;2023-11-21T02:30:02;6.00;;;1.50;;
17967;SDS011;9109;48.050;11.696;2023-11-21T02:33:07;4.23;;;1.20;;
17967;SDS011;9109;48.050;11.696;2023-11-21T02:36:10;5.77;;;1.50;;
17967;SDS011;9109;48.050;11.696;2023-11-21T02:39:15;5.03;;;1.57;;
17967;SDS011;9109;48.050;11.696;2023-11-21T02:42:22;8.20;;;1.40;;
17967;SDS011;9109;48.050;11.696;2023-11-21T02:45:24;2.60;;;1.07;;
17967;SDS011;9109;48.050;11.696;2023-11-21T02:48:29;5.67;;;1.20;;
17967;SDS011;9109;48.050;11.696;2023-11-21T02:51:31;4.67;;;1.40;;
17967;SDS011;9109;48.050;11.696;2023-11-21T02:54:35;6.10;;;1.63;;
17967;SDS011;9109;48.050;11.696;2023-11-21T02:57:49;6.33;;;1.40;;
17967;SDS011;9109;48.050;11.696;2023-11-21T03:01:00;6.20;;;1.17;;
17967;SDS011;9109;48.050;11.696;2023-11-21T03:04:02;5.03;;;1.30;;
17967;SDS011;9109;48.050;11.696;2023-11-21T03:07:10;3.70;;;1.17;;
17967;SDS011;9109;48.050;11.696;2023-11-21T03:10:17;8.30;;;1.60;;
17967;SDS011;9109;48.050;11.696;2023-11-21T03:13:19;7.20;;;1.13;;
17967;SDS011;9109;48.050;11.696;2023-11-21T03:16:23;13.27;;;1.70;;
17967;SDS011;9109;48.050;11.696;2023-11-21T03:19:26;7.30;;;1.27;;
17967;SDS011;9109;48.050;11.696;2023-11-21T03:22:31;6.57;;;1.13;;
17967;SDS011;9109;48.050;11.696;2023-11-21T03:25:35;5.33;;;1.50;;
17967;SDS011;9109;48.050;11.696;2023-11-21T03:28:38;4.90;;;1.30;;
17967;SDS011;9109;48.050;11.696;2023-11-21T03:31:57;2.07;;;1.03;;
17967;SDS011;9109;48.050;11.696;2023-11-21T03:35:02;8.57;;;1.40;;
17967;SDS011;9109;48.050;11.696;2023-11-21T03:38:10;5.03;;;1.13;;
17967;SDS011;9109;48.050;11.696;2023-11-21T03:41:14;4.53;;;1.57;;
17967;SDS011;9109;48.050;11.696;2023-11-21T03:44:18;9.10;;;1.17;;
17967;SDS011;9109;48.050;11.696;2023-11-21T03:47:20;8.53;;;1.27;;
17967;SDS011;9109;48.050;11.696;2023-11-21T03:50:22;4.93;;;1.40;;
17967;SDS011;9109;48.050;11.696;2023-11-21T03:53:28;8.13;;;1.60;;
17967;SDS011;9109;48.050;11.696;2023-11-21T03:56:31;2.87;;;1.10;;
17967;SDS011;9109;48.050;11.696;2023-11-21T03:59:36;4.37;;;1.10;;
17967;SDS011;9109;48.050;11.696;2023-11-21T04:02:45;5.67;;;1.30;;
17967;SDS011;9109;48.050;11.696;2023-11-21T04:05:47;3.30;;;0.97;;
17967;SDS011;9109;48.050;11.696;2023-11-21T04:08:50;3.13;;;0.70;;
17967;SDS011;9109;48.050;11.696;2023-11-21T04:11:59;5.63;;;1.20;;
17967;SDS011;9109;48.050;11.696;2023-11-21T04:15:09;2.47;;;0.90;;
17967;SDS011;9109;48.050;11.696;2023-11-21T04:18:17;3.73;;;1.00;;
17967;SDS011;9109;48.050;11.696;2023-11-21T04:21:20;5.17;;;1.40;;
17967;SDS011;9109;48.050;11.696;2023-11-21T04:24:24;6.50;;;1.20;;
17967;SDS011;9109;48.050;11.696;2023-11-21T04:27:28;5.23;;;1.10;;
17967;SDS011;9109;48.050;11.696;2023-11-21T04:30:30;4.00;;;1.17;;
17967;SDS011;9109;48.050;11.696;2023-11-21T04:33:41;4.67;;;0.83;;
17967;SDS011;9109;48.050;11.696;2023-11-21T04:36:47;5.70;;;0.90;;
17967;SDS011;9109;48.050;11.696;2023-11-21T04:39:50;3.87;;;0.90;;
17967;SDS011;9109;48.050;11.696;2023-11-21T04:42:54;3.50;;;1.30;;
17967;SDS011;9109;48.050;11.696;2023-11-21T04:45:57;3.10;;;1.07;;
17967;SDS011;9109;48.050;11.696;2023-11-21T04:49:03;5.40;;;0.90;;
17967;SDS011;9109;48.050;11.696;2023-11-21T04:52:07;0.87;;;0.70;;
17967;SDS011;9109;48.050;11.696;2023-11-21T04:55:11;2.30;;;0.80;;
17967;SDS011;9109;48.050;11.696;2023-11-21T04:58:17;4.10;;;1.00;;
17967;SDS011;9109;48.050;11.696;2023-11-21T05:01:22;2.20;;;0.80;;
17967;SDS011;9109;48.050;11.696;2023-11-21T05:04:31;6.93;;;0.90;;
17967;SDS011;9109;48.050;11.696;2023-11-21T05:07:33;4.20;;;0.90;;
17967;SDS011;9109;48.050;11.696;2023-11-21T05:10:36;1.13;;;0.63;;
17967;SDS011;9109;48.050;11.696;2023-11-21T05:13:44;2.63;;;1.13;;
17967;SDS011;9109;48.050;11.696;2023-11-21T05:16:50;4.37;;;1.00;;
17967;SDS011;9109;48.050;11.696;2023-11-21T05:19:55;3.87;;;1.10;;
17967;SDS011;9109;48.050;11.696;2023-11-21T05:23:03;4.63;;;0.80;;
17967;SDS011;9109;48.050;11.696;2023-11-21T05:26:06;3.23;;;1.00;;
17967;SDS011;9109;48.050;11.696;2023-11-21T05:29:12;5.73;;;1.00;;
17967;SDS011;9109;48.050;11.696;2023-11-21T05:32:16;5.23;;;1.00;;
17967;SDS011;9109;48.050;11.696;2023-11-21T05:35:19;10.07;;;1.20;;
17967;SDS011;9109;48.050;11.696;2023-11-21T05:38:25;3.90;;;1.20;;
17967;SDS011;9109;48.050;11.696;2023-11-21T05:41:27;3.87;;;0.80;;
17967;SDS011;9109;48.050;11.696;2023-11-21T05:44:33;0.83;;;0.70;;
17967;SDS011;9109;48.050;11.696;2023-11-21T05:47:36;2.87;;;0.80;;
17967;SDS011;9109;48.050;11.696;2023-11-21T05:50:40;5.87;;;0.93;;
17967;SDS011;9109;48.050;11.696;2023-11-21T05:53:42;1.13;;;0.80;;
17967;SDS011;9109;48.050;11.696;2023-11-21T05:56:46;5.03;;;1.07;;
17967;SDS011;9109;48.050;11.696;2023-11-21T05:59:50;2.00;;;1.37;;
17967;SDS011;9109;48.050;11.696;2023-11-21T06:02:54;2.03;;;0.80;;
17967;SDS011;9109;48.050;11.696;2023-11-21T06:05:57;2.70;;;0.80;;
17967;SDS011;9109;48.050;11.696;2023-11-21T06:09:00;4.80;;;1.20;;
17967;SDS011;9109;48.050;11.696;2023-11-21T06:12:16;3.27;;;1.00;;
17967;SDS011;9109;48.050;11.696;2023-11-21T06:15:25;5.73;;;1.00;;
17967;SDS011;9109;48.050;11.696;2023-11-21T06:18:38;1.73;;;0.97;;
17967;SDS011;9109;48.050;11.696;2023-11-21T06:21:44;1.37;;;0.90;;
17967;SDS011;9109;48.050;11.696;2023-11-21T06:24:47;4.03;;;0.97;;
17967;SDS011;9109;48.050;11.696;2023-11-21T06:27:54;3.83;;;1.10;;
17967;SDS011;9109;48.050;11.696;2023-11-21T06:31:01;7.57;;;1.30;;
17967;SDS011;9109;48.050;11.696;2023-11-21T06:34:05;4.77;;;1.20;;
17967;SDS011;9109;48.050;11.696;2023-11-21T06:37:10;1.40;;;0.77;;
17967;SDS011;9109;48.050;11.696;2023-11-21T06:40:12;2.70;;;0.97;;
17967;SDS011;9109;48.050;11.696;2023-11-21T06:43:19;5.23;;;1.03;;
17967;SDS011;9109;48.050;11.696;2023-11-21T06:46:28;4.70;;;1.00;;
17967;SDS011;9109;48.050;11.696;2023-11-21T06:49:31;2.27;;;1.03;;
17967;SDS011;9109;48.050;11.696;2023-11-21T06:52:49;4.67;;;1.30;;
17967;SDS011;9109;48.050;11.696;2023-11-21T06:56:18;2.20;;;1.20;;
17967;SDS011;9109;48.050;11.696;2023-11-21T06:59:28;3.47;;;1.03;;
17967;SDS011;9109;48.050;11.696;2023-11-21T07:02:47;3.77;;;1.10;;
17967;SDS011;9109;48.050;11.696;2023-11-21T07:06:09;5.00;;;1.07;;
17967;SDS011;9109;48.050;11.696;2023-11-21T07:09:13;2.37;;;1.10;;
17967;SDS011;9109;48.050;11.696;2023-11-21T07:12:22;2.90;;;0.97;;
17967;SDS011;9109;48.050;11.696;2023-11-21T07:15:37;2.70;;;1.00;;
17967;SDS011;9109;48.050;11.696;2023-11-21T07:18:56;2.83;;;0.87;;
17967;SDS011;9109;48.050;11.696;2023-11-21T07:22:08;2.23;;;0.90;;
17967;SDS011;9109;48.050;11.696;2023-11-21T07:25:15;2.90;;;1.00;;
17967;SDS011;9109;48.050;11.696;2023-11-21T07:28:26;7.03;;;1.00;;
17967;SDS011;9109;48.050;11.696;2023-11-21T07:31:31;3.53;;;1.07;;
17967;SDS011;9109;48.050;11.696;2023-11-21T07:34:45;4.30;;;1.30;;
17967;SDS011;9109;48.050;11.696;2023-11-21T07:37:54;1.60;;;0.90;;
17967;SDS011;9109;48.050;11.696;2023-11-21T07:41:05;1.90;;;0.90;;
17967;SDS011;9109;48.050;11.696;2023-11-21T07:44:20;2.27;;;0.93;;
17967;SDS011;9109;48.050;11.696;2023-11-21T07:47:37;4.47;;;1.17;;
17967;SDS011;9109;48.050;11.696;2023-11-21T07:54:22;2.60;;;1.07;;
17967;SDS011;9109;48.050;11.696;2023-11-21T07:57:38;3.03;;;0.80;;
17967;SDS011;9109;48.050;11.696;2023-11-21T08:00:52;4.30;;;1.20;;
17967;SDS011;9109;48.050;11.696;2023-11-21T08:03:57;1.13;;;0.80;;
17967;SDS011;9109;48.050;11.696;2023-11-21T08:07:21;2.57;;;0.77;;
17967;SDS011;9109;48.050;11.696;2023-11-21T08:10:35;2.93;;;1.10;;
17967;SDS011;9109;48.050;11.696;2023-11-21T08:13:46;1.60;;;0.90;;
17967;SDS011;9109;48.050;11.696;2023-11-21T08:17:05;2.23;;;0.83;;
17967;SDS011;9109;48.050;11.696;2023-11-21T08:20:15;2.13;;;0.90;;
17967;SDS011;9109;48.050;11.696;2023-11-21T08:23:25;1.17;;;0.67;;
17967;SDS011;9109;48.050;11.696;2023-11-21T08:26:35;2.27;;;0.90;;
17967;SDS011;9109;48.050;11.696;2023-11-21T08:29:41;2.30;;;0.90;;
17967;SDS011;9109;48.050;11.696;2023-11-21T08:32:49;1.93;;;1.00;;
17967;SDS011;9109;48.050;11.696;2023-11-21T08:35:58;1.10;;;0.70;;
17967;SDS011;9109;48.050;11.696;2023-11-21T08:39:12;2.20;;;0.93;;
17967;SDS011;9109;48.050;11.696;2023-11-21T08:42:21;4.10;;;0.80;;
17967;SDS011;9109;48.050;11.696;2023-11-21T08:45:24;3.97;;;0.90;;
17967;SDS011;9109;48.050;11.696;2023-11-21T08:48:40;2.90;;;1.10;;
17967;SDS011;9109;48.050;11.696;2023-11-21T08:51:44;2.50;;;1.00;;
17967;SDS011;9109;48.050;11.696;2023-11-21T08:54:46;6.00;;;0.73;;
17967;SDS011;9109;48.050;11.696;2023-11-21T08:58:05;1.60;;;0.67;;
17967;SDS011;9109;48.050;11.696;2023-11-21T09:01:19;1.63;;;0.97;;
17967;SDS011;9109;48.050;11.696;2023-11-21T09:04:22;1.17;;;0.60;;
17967;SDS011;9109;48.050;11.696;2023-11-21T09:07:28;2.10;;;0.67;;
17967;SDS011;9109;48.050;11.696;2023-11-21T09:10:34;4.40;;;1.07;;
17967;SDS011;9109;48.050;11.696;2023-11-21T09:14:00;1.33;;;0.70;;
17967;SDS011;9109;48.050;11.696;2023-11-21T09:17:05;4.20;;;0.70;;
17967;SDS011;9109;48.050;11.696;2023-11-21T09:20:17;2.37;;;0.80;;
17967;SDS011;9109;48.050;11.696;2023-11-21T09:23:54;1.73;;;0.83;;
17967;SDS011;9109;48.050;11.696;2023-11-21T09:26:59;1.90;;;0.97;;
17967;SDS011;9109;48.050;11.696;2023-11-21T09:30:15;2.40;;;1.07;;
17967;SDS011;9109;48.050;11.696;2023-11-21T09:33:26;1.67;;;0.67;;
17967;SDS011;9109;48.050;11.696;2023-11-21T09:36:35;2.50;;;0.90;;
17967;SDS011;9109;48.050;11.696;2023-11-21T09:40:09;1.80;;;0.77;;
17967;SDS011;9109;48.050;11.696;2023-11-21T09:43:14;2.93;;;0.70;;
17967;SDS011;9109;48.050;11.696;2023-11-21T09:46:20;1.33;;;0.60;;
17967;SDS011;9109;48.050;11.696;2023-11-21T09:49:26;3.00;;;0.90;;
17967;SDS011;9109;48.050;11.696;2023-11-21T09:52:57;4.80;;;0.60;;
17967;SDS011;9109;48.050;11.696;2023-11-21T09:56:04;2.23;;;0.90;;
17967;SDS011;9109;48.050;11.696;2023-11-21T09:59:10;2.10;;;0.90;;
17967;SDS011;9109;48.050;11.696;2023-11-21T10:02:26;1.47;;;0.70;;
17967;SDS011;9109;48.050;11.696;2023-11-21T10:05:36;1.73;;;0.80;;
17967;SDS011;9109;48.050;11.696;2023-11-21T10:08:48;2.37;;;0.90;;
17967;SDS011;9109;48.050;11.696;2023-11-21T10:11:57;3.13;;;0.80;;
17967;SDS011;9109;48.050;11.696;2023-11-21T10:15:15;1.53;;;0.73;;
17967;SDS011;9109;48.050;11.696;2023-11-21T10:18:34;1.20;;;0.70;;
17967;SDS011;9109;48.050;11.696;2023-11-21T10:25:03;0.60;;;0.60;;
17967;SDS011;9109;48.050;11.696;2023-11-21T10:28:10;1.70;;;0.80;;
17967;SDS011;9109;48.050;11.696;2023-11-21T10:31:21;2.47;;;0.83;;
17967;SDS011;9109;48.050;11.696;2023-11-21T10:38:22;6.50;;;0.90;;
17967;SDS011;9109;48.050;11.696;2023-11-21T10:41:27;1.63;;;0.77;;
17967;SDS011;9109;48.050;11.696;2023-11-21T10:44:38;1.53;;;0.80;;
17967;SDS011;9109;48.050;11.696;2023-11-21T10:47:50;1.10;;;0.60;;
17967;SDS011;9109;48.050;11.696;2023-11-21T10:50:53;0.83;;;0.67;;
17967;SDS011;9109;48.050;11.696;2023-11-21T10:54:06;1.07;;;0.67;;
17967;SDS011;9109;48.050;11.696;2023-11-21T10:57:17;2.13;;;0.90;;
17967;SDS011;9109;48.050;11.696;2023-11-21T11:00:40;1.30;;;0.73;;
17967;SDS011;9109;48.050;11.696;2023-11-21T11:03:48;1.90;;;0.90;;
17967;SDS011;9109;48.050;11.696;2023-11-21T11:06:57;2.20;;;1.13;;
17967;SDS011;9109;48.050;11.696;2023-11-21T11:10:10;4.23;;;1.00;;
17967;SDS011;9109;48.050;11.696;2023-11-21T11:13:17;2.00;;;0.87;;
17967;SDS011;9109;48.050;11.696;2023-11-21T11:16:30;1.80;;;0.97;;
17967;SDS011;9109;48.050;11.696;2023-11-21T11:19:40;5.37;;;1.00;;
17967;SDS011;9109;48.050;11.696;2023-11-21T11:22:48;3.83;;;0.80;;
17967;SDS011;9109;48.050;11.696;2023-11-21T11:26:07;5.13;;;0.97;;
17967;SDS011;9109;48.050;11.696;2023-11-21T11:29:23;2.67;;;1.10;;
17967;SDS011;9109;48.050;11.696;2023-11-21T11:32:36;3.17;;;1.10;;
17967;SDS011;9109;48.050;11.696;2023-11-21T11:39:17;2.77;;;1.00;;
17967;SDS011;9109;48.050;11.696;2023-11-21T11:42:26;1.23;;;0.90;;
17967;SDS011;9109;48.050;11.696;2023-11-21T11:45:47;1.67;;;0.87;;
17967;SDS011;9109;48.050;11.696;2023-11-21T11:49:24;6.27;;;1.17;;
17967;SDS011;9109;48.050;11.696;2023-11-21T11:52:41;3.60;;;1.07;;
17967;SDS011;9109;48.050;11.696;2023-11-21T11:55:57;2.63;;;0.87;;
17967;SDS011;9109;48.050;11.696;2023-11-21T12:03:10;1.63;;;0.90;;
17967;SDS011;9109;48.050;11.696;2023-11-21T12:06:15;3.30;;;1.40;;
17967;SDS011;9109;48.050;11.696;2023-11-21T12:12:59;3.27;;;1.10;;
17967;SDS011;9109;48.050;11.696;2023-11-21T12:16:02;5.47;;;0.90;;
17967;SDS011;9109;48.050;11.696;2023-11-21T12:22:48;3.80;;;0.70;;
17967;SDS011;9109;48.050;11.696;2023-11-21T12:25:57;4.53;;;0.93;;
17967;SDS011;9109;48.050;11.696;2023-11-21T12:29:08;5.53;;;0.90;;
17967;SDS011;9109;48.050;11.696;2023-11-21T12:32:11;1.80;;;0.80;;
17967;SDS011;9109;48.050;11.696;2023-11-21T12:35:18;1.83;;;0.80;;
17967;SDS011;9109;48.050;11.696;2023-11-21T12:38:39;2.70;;;0.80;;
17967;SDS011;9109;48.050;11.696;2023-11-21T12:41:43;1.57;;;1.00;;
17967;SDS011;9109;48.050;11.696;2023-11-21T12:45:06;2.53;;;1.10;;
17967;SDS011;9109;48.050;11.696;2023-11-21T12:48:23;2.47;;;0.90;;
17967;SDS011;9109;48.050;11.696;2023-11-21T12:51:34;2.60;;;0.80;;
17967;SDS011;9109;48.050;11.696;2023-11-21T12:58:09;1.40;;;0.80;;
17967;SDS011;9109;48.050;11.696;2023-11-21T13:01:25;1.63;;;0.90;;
17967;SDS011;9109;48.050;11.696;2023-11-21T13:04:36;1.03;;;0.83;;
17967;SDS011;9109;48.050;11.696;2023-11-21T13:11:24;5.97;;;0.97;;
17967;SDS011;9109;48.050;11.696;2023-11-21T13:14:33;1.57;;;0.90;;
17967;SDS011;9109;48.050;11.696;2023-11-21T13:18:05;1.70;;;0.80;;
17967;SDS011;9109;48.050;11.696;2023-11-21T13:21:13;1.77;;;0.90;;
17967;SDS011;9109;48.050;11.696;2023-11-21T13:24:45;5.23;;;1.10;;
17967;SDS011;9109;48.050;11.696;2023-11-21T13:27:48;2.33;;;0.87;;
17967;SDS011;9109;48.050;11.696;2023-11-21T13:31:10;1.03;;;0.70;;
17967;SDS011;9109;48.050;11.696;2023-11-21T13:34:27;1.13;;;0.77;;
17967;SDS011;9109;48.050;11.696;2023-11-21T13:37:38;1.93;;;0.70;;
17967;SDS011;9109;48.050;11.696;2023-11-21T13:40:48;0.73;;;0.60;;
17967;SDS011;9109;48.050;11.696;2023-11-21T13:43:57;1.93;;;0.60;;
17967;SDS011;9109;48.050;11.696;2023-11-21T13:47:09;0.60;;;0.60;;
17967;SDS011;9109;48.050;11.696;2023-11-21T13:50:20;1.20;;;0.63;;
17967;SDS011;9109;48.050;11.696;2023-11-21T13:53:24;2.53;;;0.70;;
17967;SDS011;9109;48.050;11.696;2023-11-21T13:56:31;1.27;;;0.50;;
17967;SDS011;9109;48.050;11.696;2023-11-21T13:59:34;2.17;;;0.57;;
17967;SDS011;9109;48.050;11.696;2023-11-21T14:02:44;1.47;;;0.60;;
17967;SDS011;9109;48.050;11.696;2023-11-21T14:05:53;1.80;;;0.60;;
17967;SDS011;9109;48.050;11.696;2023-11-21T14:09:01;0.40;;;0.40;;
17967;SDS011;9109;48.050;11.696;2023-11-21T14:12:14;0.83;;;0.50;;
17967;SDS011;9109;48.050;11.696;2023-11-21T14:15:36;0.87;;;0.50;;
17967;SDS011;9109;48.050;11.696;2023-11-21T14:19:30;1.30;;;0.50;;
17967;SDS011;9109;48.050;11.696;2023-11-21T14:22:33;3.17;;;1.37;;
17967;SDS011;9109;48.050;11.696;2023-11-21T14:25:40;7.30;;;1.07;;
17967;SDS011;9109;48.050;11.696;2023-11-21T14:28:43;1.20;;;0.80;;
17967;SDS011;9109;48.050;11.696;2023-11-21T14:31:45;1.63;;;0.80;;
17967;SDS011;9109;48.050;11.696;2023-11-21T14:34:48;1.70;;;0.77;;
17967;SDS011;9109;48.050;11.696;2023-11-21T14:38:00;1.03;;;0.70;;
17967;SDS011;9109;48.050;11.696;2023-11-21T14:41:05;1.07;;;0.80;;
17967;SDS011;9109;48.050;11.696;2023-11-21T14:44:09;2.10;;;1.10;;
17967;SDS011;9109;48.050;11.696;2023-11-21T14:47:15;1.97;;;1.07;;
17967;SDS011;9109;48.050;11.696;2023-11-21T14:50:25;4.27;;;1.90;;
17967;SDS011;9109;48.050;11.696;2023-11-21T14:53:58;8.73;;;3.13;;
17967;SDS011;9109;48.050;11.696;2023-11-21T14:57:08;12.37;;;5.30;;
17967;SDS011;9109;48.050;11.696;2023-11-21T15:00:21;10.50;;;5.07;;
17967;SDS011;9109;48.050;11.696;2023-11-21T15:03:47;25.50;;;11.90;;
17967;SDS011;9109;48.050;11.696;2023-11-21T15:06:57;4.37;;;2.70;;
17967;SDS011;9109;48.050;11.696;2023-11-21T15:09:59;3.07;;;1.93;;
17967;SDS011;9109;48.050;11.696;2023-11-21T15:13:03;4.00;;;2.33;;
17967;SDS011;9109;48.050;11.696;2023-11-21T15:16:14;6.17;;;2.10;;
17967;SDS011;9109;48.050;11.696;2023-11-21T15:19:21;4.73;;;1.37;;
17967;SDS011;9109;48.050;11.696;2023-11-21T15:22:26;1.73;;;1.27;;
17967;SDS011;9109;48.050;11.696;2023-11-21T15:25:37;3.33;;;1.20;;
17967;SDS011;9109;48.050;11.696;2023-11-21T15:28:39;2.40;;;1.13;;
17967;SDS011;9109;48.050;11.696;2023-11-21T15:31:50;12.33;;;1.23;;
17967;SDS011;9109;48.050;11.696;2023-11-21T15:35:00;6.00;;;0.87;;
17967;SDS011;9109;48.050;11.696;2023-11-21T15:38:04;2.70;;;1.00;;
17967;SDS011;9109;48.050;11.696;2023-11-21T15:41:08;4.27;;;1.20;;
17967;SDS011;9109;48.050;11.696;2023-11-21T15:44:16;2.53;;;1.10;;
17967;SDS011;9109;48.050;11.696;2023-11-21T15:47:21;4.07;;;1.40;;
17967;SDS011;9109;48.050;11.696;2023-11-21T15:50:27;2.60;;;1.30;;
17967;SDS011;9109;48.050;11.696;2023-11-21T15:53:32;4.00;;;1.70;;
17967;SDS011;9109;48.050;11.696;2023-11-21T15:56:36;5.87;;;2.40;;
17967;SDS011;9109;48.050;11.696;2023-11-21T15:59:44;2.77;;;1.80;;
17967;SDS011;9109;48.050;11.696;2023-11-21T16:02:47;6.13;;;2.50;;
17967;SDS011;9109;48.050;11.696;2023-11-21T16:05:55;5.13;;;2.53;;
17967;SDS011;9109;48.050;11.696;2023-11-21T16:08:58;2.97;;;1.53;;
17967;SDS011;9109;48.050;11.696;2023-11-21T16:12:02;4.50;;;1.80;;
17967;SDS011;9109;48.050;11.696;2023-11-21T16:15:06;3.93;;;1.87;;
17967;SDS011;9109;48.050;11.696;2023-11-21T16:18:10;6.97;;;1.77;;
17967;SDS011;9109;48.050;11.696;2023-11-21T16:21:12;2.87;;;1.43;;
17967;SDS011;9109;48.050;11.696;2023-11-21T16:24:15;8.50;;;3.03;;
17967;SDS011;9109;48.050;11.696;2023-11-21T16:27:17;3.53;;;1.83;;
17967;SDS011;9109;48.050;11.696;2023-11-21T16:30:19;8.60;;;2.70;;
17967;SDS011;9109;48.050;11.696;2023-11-21T16:33:24;7.07;;;2.60;;
17967;SDS011;9109;48.050;11.696;2023-11-21T16:36:26;3.07;;;2.20;;
17967;SDS011;9109;48.050;11.696;2023-11-21T16:39:28;4.10;;;2.27;;
17967;SDS011;9109;48.050;11.696;2023-11-21T16:42:30;3.90;;;2.40;;
17967;SDS011;9109;48.050;11.696;2023-11-21T16:45:34;8.73;;;2.87;;
17967;SDS011;9109;48.050;11.696;2023-11-21T16:48:37;4.67;;;2.47;;
17967;SDS011;9109;48.050;11.696;2023-11-21T16:51:39;5.47;;;2.17;;
17967;SDS011;9109;48.050;11.696;2023-11-21T16:54:41;6.30;;;2.50;;
17967;SDS011;9109;48.050;11.696;2023-11-21T16:57:43;6.77;;;2.73;;
17967;SDS011;9109;48.050;11.696;2023-11-21T17:00:45;5.17;;;2.77;;
17967;SDS011;9109;48.050;11.696;2023-11-21T17:03:51;5.43;;;2.50;;
17967;SDS011;9109;48.050;11.696;2023-11-21T17:06:55;4.23;;;2.53;;
17967;SDS011;9109;48.050;11.696;2023-11-21T17:09:57;5.00;;;2.93;;
17967;SDS011;9109;48.050;11.696;2023-11-21T17:12:59;6.60;;;3.03;;
17967;SDS011;9109;48.050;11.696;2023-11-21T17:16:03;6.97;;;2.83;;
17967;SDS011;9109;48.050;11.696;2023-11-21T17:19:08;3.97;;;2.33;;
17967;SDS011;9109;48.050;11.696;2023-11-21T17:22:10;6.53;;;2.50;;
17967;SDS011;9109;48.050;11.696;2023-11-21T17:25:12;3.60;;;2.00;;
17967;SDS011;9109;48.050;11.696;2023-11-21T17:28:17;5.50;;;2.50;;
17967;SDS011;9109;48.050;11.696;2023-11-21T17:31:22;3.57;;;2.40;;
17967;SDS011;9109;48.050;11.696;2023-11-21T17:34:26;4.97;;;2.30;;
17967;SDS011;9109;48.050;11.696;2023-11-21T17:37:31;4.97;;;2.40;;
17967;SDS011;9109;48.050;11.696;2023-11-21T17:40:33;5.43;;;2.70;;
17967;SDS011;9109;48.050;11.696;2023-11-21T17:43:39;2.97;;;1.90;;
17967;SDS011;9109;48.050;11.696;2023-11-21T17:46:42;3.20;;;2.00;;
17967;SDS011;9109;48.050;11.696;2023-11-21T17:49:46;3.90;;;1.80;;
17967;SDS011;9109;48.050;11.696;2023-11-21T17:52:49;2.73;;;1.77;;
17967;SDS011;9109;48.050;11.696;2023-11-21T17:55:51;4.80;;;2.27;;
17967;SDS011;9109;48.050;11.696;2023-11-21T17:58:53;4.23;;;2.00;;
17967;SDS011;9109;48.050;11.696;2023-11-21T18:01:57;2.87;;;1.97;;
17967;SDS011;9109;48.050;11.696;2023-11-21T18:05:00;3.77;;;1.80;;
17967;SDS011;9109;48.050;11.696;2023-11-21T18:08:05;6.23;;;2.13;;
17967;SDS011;9109;48.050;11.696;2023-11-21T18:11:07;2.53;;;1.80;;
17967;SDS011;9109;48.050;11.696;2023-11-21T18:14:09;3.47;;;1.97;;
17967;SDS011;9109;48.050;11.696;2023-11-21T18:17:11;8.73;;;2.07;;
17967;SDS011;9109;48.050;11.696;2023-11-21T18:20:18;4.30;;;1.70;;
17967;SDS011;9109;48.050;11.696;2023-11-21T18:23:20;6.13;;;2.23;;
17967;SDS011;9109;48.050;11.696;2023-11-21T18:26:21;3.73;;;1.63;;
17967;SDS011;9109;48.050;11.696;2023-11-21T18:29:24;7.27;;;2.77;;
17967;SDS011;9109;48.050;11.696;2023-11-21T18:32:28;4.30;;;2.37;;
17967;SDS011;9109;48.050;11.696;2023-11-21T18:35:32;5.77;;;2.40;;
17967;SDS011;9109;48.050;11.696;2023-11-21T18:38:34;6.30;;;2.80;;
17967;SDS011;9109;48.050;11.696;2023-11-21T18:41:37;4.60;;;2.10;;
17967;SDS011;9109;48.050;11.696;2023-11-21T18:44:42;8.77;;;2.20;;
17967;SDS011;9109;48.050;11.696;2023-11-21T18:47:50;4.13;;;2.50;;
17967;SDS011;9109;48.050;11.696;2023-11-21T18:50:58;6.80;;;2.93;;
17967;SDS011;9109;48.050;11.696;2023-11-21T18:54:01;20.40;;;3.93;;
17967;SDS011;9109;48.050;11.696;2023-11-21T18:57:06;5.50;;;3.40;;
17967;SDS011;9109;48.050;11.696;2023-11-21T19:00:10;6.50;;;3.30;;
17967;SDS011;9109;48.050;11.696;2023-11-21T19:03:19;7.33;;;3.50;;
17967;SDS011;9109;48.050;11.696;2023-11-21T19:06:25;5.47;;;3.17;;
17967;SDS011;9109;48.050;11.696;2023-11-21T19:09:35;9.90;;;4.47;;
17967;SDS011;9109;48.050;11.696;2023-11-21T19:12:37;11.03;;;4.67;;
17967;SDS011;9109;48.050;11.696;2023-11-21T19:15:43;8.77;;;4.23;;
17967;SDS011;9109;48.050;11.696;2023-11-21T19:18:45;6.83;;;4.40;;
17967;SDS011;9109;48.050;11.696;2023-11-21T19:21:50;9.07;;;4.80;;
17967;SDS011;9109;48.050;11.696;2023-11-21T19:24:52;10.77;;;5.53;;